NEODyS-2

Near Earth Objects - Dynamic Site
NEODyS ∴ Observatories ∴ Site 691 ∴ Obs & residuals
Contact »
691  ▹ 
OBSERVATIONS AND RESIDUALS

691-Steward Observatory, Kitt Peak-Spacewatch

Detections | Residuals | Detections & Residuals

[1-200] [201-400] [401-600] [601-800] [801-1000] [1001-1200] [1201-1400] [1401-1600] [1601-1800] [1801-2000] [2001-2200] [2201-2400] [2401-2600] [2601-2800] [2801-3000] [3001-3200] [3201-3400] [3401-3600] [3601-3800] [3801-4000] [4001-4200] [4201-4400] [4401-4600] [4601-4800] [4801-5000] [5001-5200] [5201-5400] [5401-5600] [5601-5800] [5801-6000] [6001-6200] [6201-6400] [6401-6600] [6601-6800] [6801-7000] [7001-7200] [7201-7400] [7401-7600] [7601-7800] [7801-8000] [8001-8200] [8201-8400] [8401-8600] [8601-8800] [8801-9000] [9001-9200] [9201-9400] [9401-9600] [9601-9800] [9801-10000] [10001-10200] [10201-10400] [10401-10600] [10601-10800] [10801-11000] [11001-11200] [11201-11400] [11401-11600] [11601-11800] [11801-12000] [12001-12200] [12201-12400] [12401-12600] [12601-12800] [12801-13000] [13001-13200] [13201-13400] [13401-13600] [13601-13800] [13801-14000] [14001-14200] [14201-14400] [14401-14600] [14601-14800] [14801-15000] [15001-15200] [15201-15400] [15401-15600] [15601-15800] [15801-16000] [16001-16200] [16201-16400] [16401-16600] [16601-16800] [16801-17000] [17001-17200] [17201-17400] [17401-17600] [17601-17800] [17801-18000] [18001-18200] [18201-18400] [18401-18600] [18601-18800] [18801-19000] [19001-19200] [19201-19400] [19401-19600] [19601-19800] [19801-20000] [20001-20200] [20201-20400] [20401-20600] [20601-20800] [20801-21000] [21001-21200] [21201-21400] [21401-21600] [21601-21800] [21801-22000] [22001-22200] [22201-22400] [22401-22600] [22601-22800] [22801-23000] [23001-23200] [23201-23400] [23401-23600] [23601-23800] [23801-24000] [24001-24200] [24201-24400] [24401-24600] [24601-24800] [24801-25000] [25001-25200] [25201-25400] [25401-25600] [25601-25800] [25801-26000] [26001-26200] [26201-26400] [26401-26600] [26601-26800] [26801-27000] [27001-27200] [27201-27400] [27401-27600] [27601-27800] [27801-28000] [28001-28200] [28201-28400] [28401-28600] [28601-28800] [28801-29000] [29001-29200] [29201-29400] [29401-29600] [29601-29800] [29801-30000] [30001-30200] [30201-30400] [30401-30600] [30601-30800] [30801-31000] [31001-31200] [31201-31400] [31401-31600] [31601-31800] [31801-32000] [32001-32200] [32201-32400] [32401-32600] [32601-32800] [32801-33000] [33001-33200] [33201-33400] [33401-33600] [33601-33800] [33801-34000] [34001-34200] [34201-34400] [34401-34600] [34601-34800] [34801-35000] [35001-35200] [35201-35400] [35401-35600] [35601-35800] [35801-36000] [36001-36200] [36201-36400] [36401-36600] [36601-36800] [36801-37000] [37001-37200] [37201-37400] [37401-37600] [37601-37800] [37801-38000] [38001-38200] [38201-38400] [38401-38600] [38601-38800] [38801-39000] [39001-39200] [39201-39400] [39401-39600] [39601-39800] [39801-40000] [40001-40200] [40201-40400] [40401-40600] [40601-40800] [40801-41000] [41001-41200] [41201-41400] [41401-41600] [41601-41800] [41801-42000] [42001-42200] [42201-42400] [42401-42600] [42601-42800] [42801-43000] [43001-43200] [43201-43400] [43401-43600] [43601-43800] [43801-44000] [44001-44200] [44201-44400] [44401-44600] [44601-44800] [44801-45000] [45001-45200] [45201-45400] [45401-45600] [45601-45800] [45801-46000] [46001-46200] [46201-46400] [46401-46600] [46601-46800] [46801-47000] [47001-47200] [47201-47400] [47401-47600] [47601-47800] [47801-48000] [48001-48200] [48201-48400] [48401-48600] [48601-48800] [48801-49000] [49001-49200] [49201-49400] [49401-49600] [49601-49800] [49801-50000] [50001-50200] [50201-50388]

Designation T Tech N Date Right Ascension Declination Apparent Magnitude Star Catalog Site code χ Used A Used M
yr-mo-day precision hr:min:sec precision rms F bias residual deg min sec precision rms F bias residual mag/col rms residual
2018CD1 O C H 2018-02-05.54473 1.000E-05 10:39:26.070 1.500E-01 0.500 F 0.051 -0.124 +02° 47' 56.30" 1.000E-01 0.500 F 0.096 -1.101 o 691 2.31 Yes No
2011MU O C K 2018-02-05.54668 1.000E-05 12:38:28.250 1.500E-01 0.500 F 0.143 -0.362 +21° 48' 36.70" 1.000E-01 0.500 F 0.245 -0.040 o 691 0.75 Yes No
2010FL O C H 2018-02-05.55185 1.000E-05 12:47:22.600 1.500E-01 0.500 F 0.169 -0.068 +18° 58' 51.20" 1.000E-01 0.500 F 0.219 -0.139 21.5 R 0.70 0.47 o 691 0.31 Yes Yes
2018AG13 O C K 2018-02-06.10828 1.000E-05 02:04:49.230 1.500E-01 0.500 F -0.351 0.007 +15° 42' 50.60" 1.000E-01 0.500 F 0.238 0.638 o 691 1.34 Yes No
2017RD15 O C K 2018-02-06.11556 1.000E-05 01:45:10.780 1.500E-01 0.500 F -0.119 -0.878 +11° 10' 14.50" 1.000E-01 0.500 F 0.293 0.902 o 691 2.53 Yes No
2018AG13 O C K 2018-02-06.13426 1.000E-05 02:04:53.710 1.500E-01 0.500 F -0.351 0.666 +15° 44' 22.80" 1.000E-01 0.500 F 0.238 -0.171 o 691 1.44 Yes No
2017RD15 O C K 2018-02-06.14284 1.000E-05 01:45:16.490 1.500E-01 0.500 F -0.095 0.191 +11° 11' 04.00" 1.000E-01 0.500 F 0.269 -1.017 o 691 2.08 Yes No
2018AG13 O C K 2018-02-06.16019 1.000E-05 02:04:58.120 1.500E-01 0.500 F -0.351 0.269 +15° 45' 55.60" 1.000E-01 0.500 F 0.238 -0.125 o 691 0.62 Yes No
2017RD15 O C K 2018-02-06.16877 1.000E-05 01:45:21.890 1.500E-01 0.500 F -0.095 0.613 +11° 11' 53.00" 1.000E-01 0.500 F 0.269 -0.884 o 691 2.16 Yes No
2002LX O C H 2018-02-06.17590 1.000E-05 03:15:17.570 1.500E-01 0.500 F -0.202 0.207 -03° 03' 21.30" 1.000E-01 0.500 F 0.246 -0.073 19.5 R 0.70 0.15 o 691 0.47 Yes Yes
2018BP O C K 2018-02-06.18213 1.000E-05 04:31:27.420 1.500E-01 0.500 F -0.142 0.284 +13° 13' 42.80" 1.000E-01 0.500 F 0.166 0.132 o 691 0.63 Yes No
2002LX O C H 2018-02-06.18723 1.000E-05 03:15:12.350 1.500E-01 0.500 F -0.202 0.232 -03° 03' 51.40" 1.000E-01 0.500 F 0.246 -0.135 19.3 R 0.70 -0.05 o 691 0.57 Yes Yes
2018BP O C K 2018-02-06.19346 1.000E-05 04:31:30.420 1.500E-01 0.500 F -0.142 0.424 +13° 13' 56.10" 1.000E-01 0.500 F 0.166 0.063 o 691 0.86 Yes No
2018BP O C K 2018-02-06.20484 1.000E-05 04:31:33.410 1.500E-01 0.500 F -0.142 0.194 +13° 14' 09.90" 1.000E-01 0.500 F 0.166 0.459 o 691 1.00 Yes No
2017SS19 O C K 2018-02-06.21115 1.000E-05 04:35:23.770 1.500E-01 0.500 F -0.241 0.151 +00° 47' 07.90" 1.000E-01 0.500 F 0.228 -0.101 o 691 0.37 Yes No
2018BZ2 O C K 2018-02-06.21339 1.000E-05 05:26:14.460 1.500E-01 0.500 F -0.112 0.504 -02° 21' 44.60" 1.000E-01 0.500 F 0.013 -0.058 o 691 1.02 Yes No
2017NU6 O C K 2018-02-06.21711 1.000E-05 04:21:12.920 1.500E-01 0.500 F -0.130 0.813 +04° 50' 50.50" 1.000E-01 0.500 F 0.328 -0.380 o 691 1.84 Yes No
2017SS19 O C K 2018-02-06.22377 1.000E-05 04:35:26.970 1.500E-01 0.500 F -0.241 -0.012 +00° 47' 17.00" 1.000E-01 0.500 F 0.228 0.074 o 691 0.15 Yes No
2018BZ2 O C K 2018-02-06.22594 1.000E-05 05:26:16.690 1.500E-01 0.500 F -0.112 -0.191 -02° 21' 32.30" 1.000E-01 0.500 F 0.013 0.163 o 691 0.50 Yes No
2017NU6 O C K 2018-02-06.22958 1.000E-05 04:21:15.290 1.500E-01 0.500 F -0.130 -0.184 +04° 51' 07.80" 1.000E-01 0.500 F 0.328 0.361 o 691 0.81 Yes No
2018BZ2 O C K 2018-02-06.23845 1.000E-05 05:26:18.960 1.500E-01 0.500 F -0.112 -0.203 -02° 21' 20.80" 1.000E-01 0.500 F 0.013 -0.379 o 691 0.87 Yes No
2017NU6 O C K 2018-02-06.24203 1.000E-05 04:21:17.730 1.500E-01 0.500 F -0.130 -0.113 +04° 51' 23.80" 1.000E-01 0.500 F 0.328 -0.164 o 691 0.41 Yes No
2018BK1 O C K 2018-02-06.25269 1.000E-05 08:02:06.220 1.500E-01 0.500 F 0.097 0.117 +04° 54' 38.70" 1.000E-01 0.500 F 0.075 -0.072 o 691 0.28 Yes No
2011EB7 O C H 2018-02-06.26472 1.000E-05 08:21:08.080 1.500E-01 0.500 F -0.056 0.312 +02° 54' 50.70" 1.000E-01 0.500 F 0.070 -0.092 o 691 0.66 Yes No
2018BK1 O C K 2018-02-06.26606 1.000E-05 08:02:03.940 1.500E-01 0.500 F 0.097 0.046 +04° 54' 29.20" 1.000E-01 0.500 F 0.075 -0.428 o 691 0.87 Yes No
2011EB7 O C H 2018-02-06.27891 1.000E-05 08:21:08.300 1.500E-01 0.500 F -0.056 0.015 +02° 55' 20.20" 1.000E-01 0.500 F 0.070 0.130 19.7 R 0.70 0.42 o 691 0.26 Yes Yes
2018BK1 O C K 2018-02-06.28025 1.000E-05 08:02:01.500 1.500E-01 0.500 F 0.097 -0.337 +04° 54' 20.00" 1.000E-01 0.500 F 0.075 0.081 o 691 0.69 Yes No
2011EB7 O C H 2018-02-06.29277 1.000E-05 08:21:08.530 1.500E-01 0.500 F -0.056 -0.050 +02° 55' 49.10" 1.000E-01 0.500 F 0.070 0.452 19.1 R 0.70 -0.18 o 691 0.92 Yes Yes
2017YF7 O C H 2018-02-06.30064 1.000E-05 09:05:52.890 1.500E-01 0.500 F 0.057 -0.114 -06° 57' 18.00" 1.000E-01 0.500 F 0.080 -0.175 20.5 R 0.70 0.72 o 691 0.42 Yes Yes
2018AF13 O C K 2018-02-06.30183 1.000E-05 09:00:51.240 1.500E-01 0.500 F -0.008 0.174 -02° 31' 32.10" 1.000E-01 0.500 F 0.086 0.373 o 691 0.90 Yes No
2018AF13 O C K 2018-02-06.31523 1.000E-05 09:00:49.100 1.500E-01 0.500 F -0.008 -0.116 -02° 31' 51.50" 1.000E-01 0.500 F 0.086 -0.261 o 691 0.62 Yes No
2017YF7 O C H 2018-02-06.32751 1.000E-05 09:05:50.480 1.500E-01 0.500 F 0.057 -0.119 -06° 58' 26.90" 1.000E-01 0.500 F 0.080 -0.281 20.0 R 0.70 0.22 o 691 0.62 Yes Yes
2018AF13 O C K 2018-02-06.32869 1.000E-05 09:00:46.990 1.500E-01 0.500 F -0.008 0.167 -02° 32' 09.70" 1.000E-01 0.500 F 0.086 0.371 o 691 0.89 Yes No
2018AP12 O C K 2018-02-06.34262 1.000E-05 08:20:21.640 1.500E-01 0.500 F 0.396 -0.256 -24° 18' 46.80" 1.000E-01 0.500 F -0.034 0.161 o 691 0.61 Yes No
2017WS12 O C K 2018-02-06.34931 1.000E-05 09:17:40.210 1.500E-01 0.500 F 0.127 -0.262 +18° 44' 55.50" 1.000E-01 0.500 F 0.198 0.279 o 691 0.83 Yes No
2018CY O C K 2018-02-06.35489 1.000E-05 09:12:55.880 1.500E-01 0.500 F 0.088 0.046 +01° 28' 46.30" 1.000E-01 0.500 F 0.128 -0.068 o 691 0.16 Yes No
2018AP12 O C K 2018-02-06.36140 1.000E-05 08:20:18.810 1.500E-01 0.500 F 0.396 -0.471 -24° 19' 46.70" 1.000E-01 0.500 F -0.034 -0.023 o 691 0.96 Yes No
2017WS12 O C K 2018-02-06.36803 1.000E-05 09:17:39.990 1.500E-01 0.500 F 0.127 0.066 +18° 45' 27.90" 1.000E-01 0.500 F 0.198 0.012 o 691 0.14 Yes No
2018CY O C K 2018-02-06.37359 1.000E-05 09:12:52.930 1.500E-01 0.500 F 0.088 0.113 +01° 28' 45.50" 1.000E-01 0.500 F 0.128 -0.064 o 691 0.26 Yes No
2018AP12 O C K 2018-02-06.38010 1.000E-05 08:20:16.040 1.500E-01 0.500 F 0.396 -0.133 -24° 20' 46.70" 1.000E-01 0.500 F -0.034 -0.646 o 691 1.36 Yes No
2017WS12 O C K 2018-02-06.38674 1.000E-05 09:17:39.730 1.500E-01 0.500 F 0.127 -0.289 +18° 46' 00.10" 1.000E-01 0.500 F 0.198 -0.300 o 691 0.89 Yes No
2018CY O C K 2018-02-06.39233 1.000E-05 09:12:49.990 1.500E-01 0.500 F 0.088 0.290 +01° 28' 44.20" 1.000E-01 0.500 F 0.128 -0.559 o 691 1.27 Yes No
2015DP155 O C K 2018-02-06.42730 1.000E-05 11:56:28.120 1.500E-01 0.500 F 0.213 -0.108 +18° 45' 39.80" 1.000E-01 0.500 F 0.354 0.005 o 691 0.22 Yes No
2018BO3 O C K 2018-02-06.43662 1.000E-05 11:58:44.350 1.500E-01 0.500 F 0.187 -0.271 +27° 39' 14.70" 1.000E-01 0.500 F 0.327 0.100 o 691 0.58 Yes No
2015DP155 O C K 2018-02-06.44067 1.000E-05 11:56:28.950 1.500E-01 0.500 F 0.213 0.231 +18° 45' 54.60" 1.000E-01 0.500 F 0.354 -0.063 o 691 0.48 Yes No
2018BO3 O C K 2018-02-06.45027 1.000E-05 11:58:44.580 1.500E-01 0.500 F 0.187 -0.267 +27° 38' 39.90" 1.000E-01 0.500 F 0.327 -0.165 o 691 0.64 Yes No
2015DP155 O C K 2018-02-06.45449 1.000E-05 11:56:29.790 1.500E-01 0.500 F 0.213 0.320 +18° 46' 09.60" 1.000E-01 0.500 F 0.354 -0.386 o 691 1.00 Yes No
2018BO3 O C K 2018-02-06.46406 1.000E-05 11:58:44.810 1.500E-01 0.500 F 0.187 -0.306 +27° 38' 05.00" 1.000E-01 0.500 F 0.327 -0.080 o 691 0.64 Yes No
2018AE2 O C K 2018-02-06.48083 1.000E-05 15:19:37.480 1.500E-01 0.500 F 0.138 0.061 +32° 04' 40.60" 1.000E-01 0.500 F 0.245 0.167 o 691 0.36 Yes No
2018CQ1 O C K 2018-02-06.48433 1.000E-05 15:36:39.250 1.500E-01 0.500 F 0.152 -0.124 +22° 52' 58.70" 1.000E-01 0.500 F 0.178 -0.347 o 691 0.75 Yes No
2018AE2 O C K 2018-02-06.49348 1.000E-05 15:19:38.220 1.500E-01 0.500 F 0.106 0.213 +32° 03' 12.40" 1.000E-01 0.500 F 0.216 0.021 o 691 0.43 Yes No
2018CQ1 O C K 2018-02-06.49699 1.000E-05 15:36:38.620 1.500E-01 0.500 F 0.152 -0.500 +22° 53' 23.20" 1.000E-01 0.500 F 0.178 -0.314 o 691 1.20 Yes No
2017UX5 O C H 2018-02-06.50376 1.000E-05 16:34:31.260 1.500E-01 0.500 F 0.214 -0.384 +06° 21' 38.70" 1.000E-01 0.500 F 0.224 0.204 21.5 R 0.70 0.64 o 691 0.88 Yes Yes
2018AE2 O C K 2018-02-06.50710 1.000E-05 15:19:39.000 1.500E-01 0.500 F 0.106 0.238 +32° 01' 37.60" 1.000E-01 0.500 F 0.216 0.220 o 691 0.66 Yes No
2018CQ1 O C K 2018-02-06.51068 1.000E-05 15:36:38.000 1.500E-01 0.500 F 0.152 0.001 +22° 53' 49.80" 1.000E-01 0.500 F 0.178 -0.134 o 691 0.27 Yes No
2017UX5 O C H 2018-02-06.51748 1.000E-05 16:34:33.110 1.500E-01 0.500 F 0.214 -0.042 +06° 21' 25.90" 1.000E-01 0.500 F 0.224 0.002 21.0 R 0.70 0.14 o 691 0.08 Yes Yes
2018AG13 O C K 2018-02-07.09040 1.000E-05 02:07:40.580 1.500E-01 0.500 F -0.342 -0.672 +16° 41' 15.90" 1.000E-01 0.500 F 0.228 -0.083 o 691 1.44 Yes No
2018AG13 O C K 2018-02-07.09749 1.000E-05 02:07:41.860 1.500E-01 0.500 F -0.342 0.217 +16° 41' 41.40" 1.000E-01 0.500 F 0.228 0.303 o 691 0.80 Yes No
2018AG13 O C K 2018-02-07.10459 1.000E-05 02:07:43.080 1.500E-01 0.500 F -0.342 0.210 +16° 42' 05.90" 1.000E-01 0.500 F 0.228 -0.340 o 691 0.86 Yes No
2018BP O C K 2018-02-07.19890 1.000E-05 04:36:00.300 1.500E-01 0.500 F 0.029 0.668 +13° 33' 29.00" 1.000E-01 0.500 F 0.137 -0.290 o 691 1.46 Yes No
2017SS19 O C K 2018-02-07.20667 1.000E-05 04:39:40.390 1.500E-01 0.500 F -0.199 -0.009 +00° 58' 50.80" 1.000E-01 0.500 F 0.211 -0.077 o 691 0.16 Yes No
2018BZ2 O C K 2018-02-07.21158 1.000E-05 05:29:18.820 1.500E-01 0.500 F -0.077 -0.209 -02° 05' 55.00" 1.000E-01 0.500 F -0.002 0.004 o 691 0.42 Yes No
2018BP O C K 2018-02-07.21921 1.000E-05 04:36:05.620 1.500E-01 0.500 F 0.029 1.268 +13° 33' 52.00" 1.000E-01 0.500 F 0.137 -0.247 o 691 2.59 Yes No
2017SS19 O C K 2018-02-07.22696 1.000E-05 04:39:45.500 1.500E-01 0.500 F -0.199 0.203 +00° 59' 05.10" 1.000E-01 0.500 F 0.211 -0.039 o 691 0.42 Yes No
2018BZ2 O C K 2018-02-07.23183 1.000E-05 05:29:22.440 1.500E-01 0.500 F -0.077 0.293 -02° 05' 36.30" 1.000E-01 0.500 F -0.002 -0.373 o 691 0.95 Yes No
2018BP O C K 2018-02-07.23942 1.000E-05 04:36:10.820 1.500E-01 0.500 F 0.029 0.364 +13° 34' 15.00" 1.000E-01 0.500 F 0.137 -0.020 o 691 0.73 Yes No
2017SS19 O C K 2018-02-07.24715 1.000E-05 04:39:50.570 1.500E-01 0.500 F -0.199 0.074 +00° 59' 19.40" 1.000E-01 0.500 F 0.211 0.074 o 691 0.21 Yes No
2018BZ2 O C K 2018-02-07.25201 1.000E-05 05:29:25.980 1.500E-01 0.500 F -0.077 -0.295 -02° 05' 17.00" 1.000E-01 0.500 F -0.002 -0.084 o 691 0.62 Yes No
2017YR1 O C H 2018-02-07.25960 1.000E-05 06:22:43.460 1.500E-01 0.500 F -0.235 0.560 -09° 47' 45.90" 1.000E-01 0.500 F 0.053 0.317 20.5 R 0.70 0.79 o 691 1.30 Yes Yes
2017QV34 O C K 2018-02-07.26215 1.000E-05 07:30:16.170 1.500E-01 0.500 F -0.152 -0.049 -00° 49' 24.80" 1.000E-01 0.500 F 0.083 -0.099 o 691 0.22 Yes No
2017YR1 O C H 2018-02-07.27350 1.000E-05 06:22:45.380 1.500E-01 0.500 F -0.235 0.303 -09° 47' 43.30" 1.000E-01 0.500 F 0.053 0.027 o 691 0.61 Yes No
2017QV34 O C K 2018-02-07.27600 1.000E-05 07:30:16.230 1.500E-01 0.500 F -0.152 -0.135 -00° 49' 04.80" 1.000E-01 0.500 F 0.083 -0.479 o 691 1.00 Yes No
2017YR1 O C H 2018-02-07.28733 1.000E-05 06:22:47.290 1.500E-01 0.500 F -0.235 -0.012 -09° 47' 41.00" 1.000E-01 0.500 F 0.053 -0.573 o 691 1.16 Yes No
2017QV34 O C K 2018-02-07.28983 1.000E-05 07:30:16.280 1.500E-01 0.500 F -0.152 -0.396 -00° 48' 44.00" 1.000E-01 0.500 F 0.083 -0.025 o 691 0.81 Yes No
2011EB7 O C H 2018-02-07.30334 1.000E-05 08:21:36.830 1.500E-01 0.500 F -0.047 0.393 +03° 30' 09.10" 1.000E-01 0.500 F 0.056 0.174 19.5 R 0.70 0.17 o 691 0.87 Yes Yes
2018BQ O C K 2018-02-07.30572 1.000E-05 09:00:37.560 1.500E-01 0.500 F 0.202 0.828 -22° 52' 25.00" 1.000E-01 0.500 F -0.154 -0.031 o 691 1.72 Yes No
2017YF7 O C H 2018-02-07.30936 1.000E-05 09:04:50.170 1.500E-01 0.500 F 0.134 0.073 -07° 39' 27.20" 1.000E-01 0.500 F -0.035 0.166 20.4 R 0.70 0.58 o 691 0.37 Yes Yes
2011EB7 O C H 2018-02-07.31122 1.000E-05 08:21:36.950 1.500E-01 0.500 F -0.047 0.051 +03° 30' 24.90" 1.000E-01 0.500 F 0.056 0.112 19.5 R 0.70 0.17 o 691 0.25 Yes Yes
2018BQ O C K 2018-02-07.31350 1.000E-05 09:00:42.170 1.500E-01 0.500 F 0.202 1.485 -22° 52' 26.60" 1.000E-01 0.500 F -0.154 0.728 o 691 3.18 No No
2017YF7 O C H 2018-02-07.31709 1.000E-05 09:04:49.540 1.500E-01 0.500 F 0.134 0.812 -07° 39' 45.90" 1.000E-01 0.500 F -0.035 0.410 20.4 R 0.70 0.58 o 691 1.85 Yes Yes
2011EB7 O C H 2018-02-07.31899 1.000E-05 08:21:37.100 1.500E-01 0.500 F -0.047 0.174 +03° 30' 40.60" 1.000E-01 0.500 F 0.056 0.176 19.6 R 0.70 0.27 o 691 0.50 Yes Yes
2018BQ O C K 2018-02-07.32122 1.000E-05 09:00:46.620 1.500E-01 0.500 F 0.202 0.426 -22° 52' 29.10" 1.000E-01 0.500 F -0.154 0.336 o 691 1.13 Yes No
2017YF7 O C H 2018-02-07.32482 1.000E-05 09:04:48.820 1.500E-01 0.500 F 0.134 0.203 -07° 40' 05.40" 1.000E-01 0.500 F -0.035 -0.172 o 691 0.54 Yes No
2018CY O C K 2018-02-07.33664 1.000E-05 09:10:31.580 1.500E-01 0.500 F 0.073 -0.005 +01° 28' 20.00" 1.000E-01 0.500 F 0.152 0.195 o 691 0.39 Yes No
2005CG41 O C K 2018-02-07.34972 1.000E-05 09:12:24.270 1.500E-01 0.500 F 0.013 -0.220 +16° 38' 03.00" 1.000E-01 0.500 F 0.193 0.394 17.5 R 0.70 -2.26 o 691 0.95 Yes No
2018CY O C K 2018-02-07.35471 1.000E-05 09:10:28.620 1.500E-01 0.500 F 0.073 -0.009 +01° 28' 19.70" 1.000E-01 0.500 F 0.152 0.143 o 691 0.29 Yes No
2005CG41 O C K 2018-02-07.36769 1.000E-05 09:12:20.460 1.500E-01 0.500 F 0.013 0.329 +16° 40' 54.00" 1.000E-01 0.500 F 0.193 0.058 18.3 R 0.70 -1.46 o 691 0.68 Yes Yes
2018CY O C K 2018-02-07.37270 1.000E-05 09:10:25.690 1.500E-01 0.500 F 0.073 0.151 +01° 28' 19.70" 1.000E-01 0.500 F 0.152 0.390 o 691 0.84 Yes No
2016CW31 O C H 2018-02-07.38673 1.000E-05 10:20:59.350 1.500E-01 0.500 F 0.037 0.806 +16° 00' 16.90" 1.000E-01 0.500 F 0.221 0.329 19.1 R 0.70 -0.04 o 691 1.76 Yes Yes
2018AG2 O C K 2018-02-07.38850 1.000E-05 10:06:23.570 1.500E-01 0.500 F -0.054 0.264 -07° 09' 25.30" 1.000E-01 0.500 F 0.031 -0.245 o 691 0.72 Yes No
2016CW31 O C H 2018-02-07.39603 1.000E-05 10:20:57.930 1.500E-01 0.500 F 0.037 0.085 +15° 59' 43.00" 1.000E-01 0.500 F 0.221 -0.008 19.3 R 0.70 0.16 o 691 0.17 Yes Yes
2018AG2 O C K 2018-02-07.39775 1.000E-05 10:06:22.690 1.500E-01 0.500 F -0.054 0.590 -07° 09' 00.70" 1.000E-01 0.500 F 0.031 -0.016 o 691 1.19 Yes No
2016CW31 O C H 2018-02-07.40530 1.000E-05 10:20:56.570 1.500E-01 0.500 F 0.037 0.151 +15° 59' 09.70" 1.000E-01 0.500 F 0.221 0.189 19.0 R 0.70 -0.14 o 691 0.49 Yes Yes
2018AG2 O C K 2018-02-07.40702 1.000E-05 10:06:21.760 1.500E-01 0.500 F -0.054 0.187 -07° 08' 35.60" 1.000E-01 0.500 F 0.031 0.654 o 691 1.36 Yes No
2017SL33 O C H 2018-02-07.41319 1.000E-05 12:09:34.770 1.500E-01 0.500 F 0.284 0.051 -10° 18' 30.10" 1.000E-01 0.500 F -0.053 0.019 18.2 R 0.70 0.24 o 691 0.11 Yes Yes
2015DP155 O C K 2018-02-07.41775 1.000E-05 11:57:36.700 1.500E-01 0.500 F 0.261 0.117 +19° 04' 21.90" 1.000E-01 0.500 F 0.387 0.077 o 691 0.28 Yes No
2017SL33 O C H 2018-02-07.42523 1.000E-05 12:09:35.850 1.500E-01 0.500 F 0.284 0.080 -10° 16' 39.80" 1.000E-01 0.500 F -0.053 0.202 18.1 R 0.70 0.14 o 691 0.44 Yes Yes
2015DP155 O C K 2018-02-07.42968 1.000E-05 11:57:37.400 1.500E-01 0.500 F 0.261 0.134 +19° 04' 35.60" 1.000E-01 0.500 F 0.387 0.012 o 691 0.27 Yes No
2017SL33 O C H 2018-02-07.43731 1.000E-05 12:09:36.950 1.500E-01 0.500 F 0.284 0.377 -10° 14' 49.40" 1.000E-01 0.500 F -0.053 0.068 18.1 R 0.70 0.14 o 691 0.77 Yes Yes
2015DP155 O C K 2018-02-07.44219 1.000E-05 11:57:38.120 1.500E-01 0.500 F 0.261 -0.045 +19° 04' 49.60" 1.000E-01 0.500 F 0.387 -0.385 o 691 0.78 Yes No
2018AL18 O C K 2018-02-07.45004 1.000E-05 10:59:08.790 1.500E-01 0.500 F 0.229 -0.425 -09° 37' 39.50" 1.000E-01 0.500 F -0.019 0.409 o 691 1.19 Yes No
2011MU O C K 2018-02-07.45914 1.000E-05 12:24:48.890 1.500E-01 0.500 F 0.152 -0.073 +23° 22' 19.40" 1.000E-01 0.500 F 0.185 -0.042 o 691 0.17 Yes No
2017XB2 O C K 2018-02-07.46387 1.000E-05 13:14:24.840 1.500E-01 0.500 F 0.199 -0.077 +09° 57' 03.70" 1.000E-01 0.500 F 0.134 0.193 o 691 0.42 Yes No
2018AL18 O C K 2018-02-07.46909 1.000E-05 10:59:04.850 1.500E-01 0.500 F 0.229 -0.563 -09° 38' 14.50" 1.000E-01 0.500 F -0.019 0.589 o 691 1.64 Yes No
2011MU O C K 2018-02-07.47817 1.000E-05 12:24:40.570 1.500E-01 0.500 F 0.152 -0.464 +23° 23' 11.90" 1.000E-01 0.500 F 0.185 0.037 o 691 0.96 Yes No
2017XB2 O C K 2018-02-07.48324 1.000E-05 13:14:22.960 1.500E-01 0.500 F 0.199 -0.202 +09° 55' 13.30" 1.000E-01 0.500 F 0.134 0.136 o 691 0.49 Yes No
2018AL18 O C K 2018-02-07.48834 1.000E-05 10:59:00.920 1.500E-01 0.500 F 0.229 -0.101 -09° 38' 50.50" 1.000E-01 0.500 F -0.019 0.065 o 691 0.24 Yes No
2011MU O C K 2018-02-07.49751 1.000E-05 12:24:32.170 1.500E-01 0.500 F 0.152 -0.216 +23° 24' 05.10" 1.000E-01 0.500 F 0.185 0.188 o 691 0.59 Yes No
2017XB2 O C K 2018-02-07.50206 1.000E-05 13:14:21.150 1.500E-01 0.500 F 0.199 -0.032 +09° 53' 25.90" 1.000E-01 0.500 F 0.134 0.118 o 691 0.25 Yes No
2018CQ1 O C H 2018-02-07.51398 1.000E-05 15:35:54.460 1.500E-01 0.500 F 0.152 -0.044 +23° 25' 43.60" 1.000E-01 0.500 F 0.178 0.415 21.5 R 0.70 -0.07 o 691 0.85 Yes Yes
2017TQ3 O C H 2018-02-07.51622 1.000E-05 15:14:35.510 1.500E-01 0.500 F 0.084 -0.360 +28° 29' 14.80" 1.000E-01 0.500 F 0.162 0.700 21.2 R 0.70 0.32 o 691 1.62 Yes Yes
2018CQ1 O C H 2018-02-07.52210 1.000E-05 15:35:54.060 1.500E-01 0.500 F 0.152 0.150 +23° 25' 58.90" 1.000E-01 0.500 F 0.178 0.167 o 691 0.46 Yes No
2017TQ3 O C H 2018-02-07.52436 1.000E-05 15:14:34.590 1.500E-01 0.500 F 0.084 0.630 +28° 29' 20.00" 1.000E-01 0.500 F 0.162 -0.013 21.7 R 0.70 0.82 o 691 1.30 Yes Yes
2018CQ1 O C H 2018-02-07.53025 1.000E-05 15:35:53.620 1.500E-01 0.500 F 0.152 -0.170 +23° 26' 15.50" 1.000E-01 0.500 F 0.178 1.176 22.3 R 0.70 0.73 o 691 2.43 Yes Yes
2017TQ3 O C H 2018-02-07.53250 1.000E-05 15:14:33.580 1.500E-01 0.500 F 0.084 0.445 +28° 29' 26.30" 1.000E-01 0.500 F 0.162 0.393 21.3 R 0.70 0.42 o 691 1.23 Yes Yes
2017XV2 O C H 2018-02-08.31808 1.000E-05 08:35:32.080 1.500E-01 0.500 F 0.026 0.156 +29° 41' 54.60" 1.000E-01 0.500 F 0.279 -0.176 20.1 R 0.70 0.32 o 691 0.47 Yes Yes
2017XV2 O C H 2018-02-08.32172 1.000E-05 08:35:32.210 1.500E-01 0.500 F 0.026 0.114 +29° 41' 54.00" 1.000E-01 0.500 F 0.279 0.151 20.1 R 0.70 0.32 o 691 0.38 Yes Yes
2017XV2 O C H 2018-02-08.32535 1.000E-05 08:35:32.300 1.500E-01 0.500 F 0.026 -0.447 +29° 41' 52.80" 1.000E-01 0.500 F 0.279 -0.119 20.1 R 0.70 0.32 o 691 0.93 Yes Yes
2018BG5 O C H 2018-02-08.32896 1.000E-05 08:10:39.490 1.500E-01 0.500 F -0.050 -0.382 +31° 02' 12.00" 1.000E-01 0.500 F 0.242 0.577 20.5 R 0.70 0.17 o 691 1.42 Yes Yes
2018BG5 O C H 2018-02-08.34354 1.000E-05 08:10:38.850 1.500E-01 0.500 F -0.050 0.686 +31° 01' 40.20" 1.000E-01 0.500 F 0.242 0.503 21.2 R 0.70 0.87 o 691 1.75 Yes Yes
2018BG5 O C H 2018-02-08.35801 1.000E-05 08:10:38.100 1.500E-01 0.500 F -0.050 0.023 +31° 01' 08.40" 1.000E-01 0.500 F 0.242 0.382 20.7 R 0.70 0.37 o 691 0.79 Yes Yes
2018BK1 O C K 2018-02-08.39011 1.000E-05 07:56:17.290 1.500E-01 0.500 F 0.008 0.114 +04° 30' 48.50" 1.000E-01 0.500 F 0.115 0.166 o 691 0.41 Yes No
2011EB7 O C H 2018-02-08.40249 1.000E-05 08:22:07.820 1.500E-01 0.500 F -0.058 0.375 +04° 06' 34.90" 1.000E-01 0.500 F 0.035 -0.077 18.9 R 0.70 -0.48 o 691 0.77 Yes Yes
2018BK1 O C K 2018-02-08.40558 1.000E-05 07:56:14.720 1.500E-01 0.500 F 0.008 -0.532 +04° 30' 38.00" 1.000E-01 0.500 F 0.115 -0.155 19.3 R 0.70 -1.47 o 691 1.12 Yes Yes
2011EB7 O C H 2018-02-08.41635 1.000E-05 08:22:08.090 1.500E-01 0.500 F -0.058 -0.286 +04° 07' 02.20" 1.000E-01 0.500 F 0.035 0.133 19.3 R 0.70 -0.08 o 691 0.64 Yes Yes
2017YF7 O C 2018-02-08.41961 1.000E-05 09:03:40.620 1.500E-01 0.500 F 0.087 -0.382 -08° 23' 40.70" 1.000E-01 0.500 F 0.001 0.086 20.4 V 0.70 0.13 o 691 0.80 Yes Yes
2016CW31 O C 2018-02-08.42140 1.000E-05 10:18:36.570 1.500E-01 0.500 F 0.060 -0.194 +14° 56' 44.90" 1.000E-01 0.500 F 0.168 0.008 19.5 V 0.70 0.07 o 691 0.39 Yes Yes
2017YF7 O C 2018-02-08.42553 1.000E-05 09:03:40.180 1.500E-01 0.500 F 0.087 -0.006 -08° 23' 54.20" 1.000E-01 0.500 F 0.001 0.152 20.6 V 0.70 0.33 o 691 0.31 Yes Yes
2016CW31 O C 2018-02-08.42727 1.000E-05 10:18:35.670 1.500E-01 0.500 F 0.060 -0.178 +14° 56' 22.80" 1.000E-01 0.500 F 0.168 0.167 19.6 V 0.70 0.17 o 691 0.49 Yes Yes
2017YF7 O C 2018-02-08.43141 1.000E-05 09:03:39.720 1.500E-01 0.500 F 0.087 -0.035 -08° 24' 08.00" 1.000E-01 0.500 F 0.001 -0.186 20.5 V 0.70 0.23 o 691 0.39 Yes Yes
2016CW31 O C 2018-02-08.43313 1.000E-05 10:18:34.780 1.500E-01 0.500 F 0.060 -0.055 +14° 56' 00.50" 1.000E-01 0.500 F 0.168 0.104 19.6 V 0.70 0.17 o 691 0.24 Yes Yes
2015DP155 O C K 2018-02-08.44130 1.000E-05 11:58:45.590 1.500E-01 0.500 F 0.261 -0.088 +19° 24' 22.40" 1.000E-01 0.500 F 0.387 -0.199 21.6 R 0.70 1.05 o 691 0.44 Yes Yes
2017SL33 O C H 2018-02-08.44516 1.000E-05 12:11:19.380 1.500E-01 0.500 F 0.248 -0.147 -07° 40' 24.60" 1.000E-01 0.500 F 0.105 -0.130 18.4 R 0.70 0.48 o 691 0.40 Yes Yes
2018BV O C K 2018-02-08.44656 1.000E-05 13:05:31.780 1.500E-01 0.500 F 0.445 0.213 +00° 28' 21.50" 1.000E-01 0.500 F 0.295 -0.263 o 691 0.70 Yes No
2015DP155 O C K 2018-02-08.45240 1.000E-05 11:58:46.210 1.500E-01 0.500 F 0.261 -0.241 +19° 24' 35.30" 1.000E-01 0.500 F 0.387 -0.482 o 691 1.08 Yes No
2017SL33 O C H 2018-02-08.45619 1.000E-05 12:11:20.320 1.500E-01 0.500 F 0.248 0.087 -07° 38' 42.70" 1.000E-01 0.500 F 0.105 -0.034 18.3 R 0.70 0.38 o 691 0.19 Yes Yes
2018BV O C K 2018-02-08.45756 1.000E-05 13:05:35.000 1.500E-01 0.500 F 0.445 0.532 +00° 28' 43.10" 1.000E-01 0.500 F 0.295 0.228 o 691 1.20 Yes No
2015DP155 O C K 2018-02-08.46342 1.000E-05 11:58:46.880 1.500E-01 0.500 F 0.261 0.363 +19° 24' 49.00" 1.000E-01 0.500 F 0.387 0.161 o 691 0.79 Yes No
2017SL33 O C H 2018-02-08.46718 1.000E-05 12:11:21.210 1.500E-01 0.500 F 0.248 -0.387 -07° 37' 01.40" 1.000E-01 0.500 F 0.105 -0.199 18.1 R 0.70 0.19 o 691 0.88 Yes Yes
2018BV O C K 2018-02-08.46852 1.000E-05 13:05:38.150 1.500E-01 0.500 F 0.445 0.002 +00° 29' 04.20" 1.000E-01 0.500 F 0.295 0.293 o 691 0.61 Yes No
2017XB2 O C 2018-02-08.47300 1.000E-05 13:12:51.150 1.500E-01 0.500 F 0.123 -0.321 +08° 18' 18.80" 1.000E-01 0.500 F 0.265 0.004 18.5 V 0.70 0.26 o 691 0.64 Yes Yes
2018BP5 O C K 2018-02-08.47418 1.000E-05 13:11:59.740 1.500E-01 0.500 F 0.231 0.169 +10° 58' 58.70" 1.000E-01 0.500 F 0.273 0.222 o 691 0.57 Yes No
2009SK2 O C K 2018-02-08.47820 1.000E-05 15:05:00.580 1.500E-01 0.500 F 0.022 0.306 +10° 50' 10.30" 1.000E-01 0.500 F 0.133 0.047 o 691 0.63 Yes No
2017XB2 O C 2018-02-08.48817 1.000E-05 13:12:49.550 1.500E-01 0.500 F 0.123 -0.098 +08° 16' 47.00" 1.000E-01 0.500 F 0.265 0.062 18.5 V 0.70 0.26 o 691 0.23 Yes Yes
2018BP5 O C K 2018-02-08.48936 1.000E-05 13:11:57.900 1.500E-01 0.500 F 0.231 0.100 +10° 58' 22.10" 1.000E-01 0.500 F 0.273 0.034 o 691 0.22 Yes No
2009SK2 O C K 2018-02-08.49343 1.000E-05 15:05:01.910 1.500E-01 0.500 F 0.022 -0.234 +10° 49' 58.00" 1.000E-01 0.500 F 0.133 0.100 o 691 0.51 Yes No
2017XB2 O C 2018-02-08.50347 1.000E-05 13:12:47.900 1.500E-01 0.500 F 0.123 -0.390 +08° 15' 14.00" 1.000E-01 0.500 F 0.265 -0.181 18.4 V 0.70 0.16 o 691 0.87 Yes Yes
2018BP5 O C K 2018-02-08.50466 1.000E-05 13:11:56.040 1.500E-01 0.500 F 0.231 -0.074 +10° 57' 45.30" 1.000E-01 0.500 F 0.273 0.004 o 691 0.15 Yes No
2009SK2 O C K 2018-02-08.50879 1.000E-05 15:05:03.290 1.500E-01 0.500 F 0.022 -0.183 +10° 49' 45.30" 1.000E-01 0.500 F 0.133 -0.127 o 691 0.45 Yes No
2017YA8 O C K 2018-02-09.09647 1.000E-05 03:12:32.970 1.500E-01 0.500 F -0.224 -1.246 -30° 37' 40.10" 1.000E-01 0.500 F 0.224 -0.073 o 691 2.58 Yes No
2017YA8 O C K 2018-02-09.10129 1.000E-05 03:12:30.860 1.500E-01 0.500 F -0.224 -1.220 -30° 37' 30.90" 1.000E-01 0.500 F 0.224 -0.045 o 691 2.53 Yes No
2017YA8 O C K 2018-02-09.10613 1.000E-05 03:12:28.740 1.500E-01 0.500 F -0.224 -1.221 -30° 37' 21.60" 1.000E-01 0.500 F 0.224 0.005 o 691 2.53 Yes No
2015MT59 O C K 2018-02-09.11401 1.000E-05 00:52:06.150 1.500E-01 0.500 F -0.119 0.710 +15° 42' 08.10" 1.000E-01 0.500 F 0.361 -0.009 o 691 1.45 Yes No
2015MT59 O C K 2018-02-09.12125 1.000E-05 00:52:09.010 1.500E-01 0.500 F -0.119 1.220 +15° 42' 35.80" 1.000E-01 0.500 F 0.361 -0.047 o 691 2.50 Yes No
2015MT59 O C K 2018-02-09.12851 1.000E-05 00:52:11.810 1.500E-01 0.500 F -0.119 0.727 +15° 43' 03.30" 1.000E-01 0.500 F 0.361 -0.356 o 691 1.63 Yes No
2017SV20 O C K 2018-02-09.17048 1.000E-05 03:06:32.830 1.500E-01 0.500 F -0.244 -0.313 +04° 14' 13.80" 1.000E-01 0.500 F 0.229 -0.202 o 691 0.75 Yes No
2012OQ O C K 2018-02-09.17960 1.000E-05 03:42:31.540 1.500E-01 0.500 F -0.351 -0.060 +11° 03' 18.30" 1.000E-01 0.500 F 0.236 0.144 o 691 0.32 Yes No
2017SV20 O C K 2018-02-09.18638 1.000E-05 03:06:33.930 1.500E-01 0.500 F -0.244 0.359 +04° 14' 34.90" 1.000E-01 0.500 F 0.229 -0.036 o 691 0.73 Yes No
2012OQ O C K 2018-02-09.19547 1.000E-05 03:42:41.320 1.500E-01 0.500 F -0.351 0.038 +11° 03' 25.50" 1.000E-01 0.500 F 0.236 -0.222 o 691 0.46 Yes No
2012OQ O C K 2018-02-09.21138 1.000E-05 03:42:51.200 1.500E-01 0.500 F -0.351 1.084 +11° 03' 33.10" 1.000E-01 0.500 F 0.236 -0.135 o 691 2.31 Yes No
2017QJ18 O C 2018-02-09.25762 1.000E-05 08:03:12.120 1.500E-01 0.500 F 0.009 -0.563 +20° 25' 40.20" 1.000E-01 0.500 F 0.255 0.225 20.7 V 0.70 -0.06 o 691 1.22 Yes Yes
2017QJ18 O C 2018-02-09.26737 1.000E-05 08:03:11.980 1.500E-01 0.500 F 0.009 -0.723 +20° 25' 48.20" 1.000E-01 0.500 F 0.255 0.128 20.6 V 0.70 -0.16 o 691 1.48 Yes Yes
2017QJ18 O C 2018-02-09.27711 1.000E-05 08:03:11.890 1.500E-01 0.500 F 0.009 -0.187 +20° 25' 55.90" 1.000E-01 0.500 F 0.255 -0.243 20.6 V 0.70 -0.16 o 691 0.62 Yes Yes
2018CK O C K 2018-02-09.28990 1.000E-05 09:19:07.880 1.500E-01 0.500 F 0.198 -0.159 +08° 52' 42.40" 1.000E-01 0.500 F 0.189 -0.882 o 691 1.80 Yes No
2018BD5 O C K 2018-02-09.29799 1.000E-05 09:35:37.620 1.500E-01 0.500 F 0.040 -0.054 +14° 01' 35.80" 1.000E-01 0.500 F 0.260 -0.032 o 691 0.14 Yes No
2018CJ O C H 2018-02-09.30347 1.000E-05 09:51:26.240 1.500E-01 0.500 F 0.135 0.199 +06° 12' 14.90" 1.000E-01 0.500 F 0.221 -0.296 o 691 0.73 Yes No
2018CK O C K 2018-02-09.30549 1.000E-05 09:19:08.240 1.500E-01 0.500 F 0.198 0.070 +08° 52' 32.40" 1.000E-01 0.500 F 0.189 -0.154 o 691 0.34 Yes No
2018BD5 O C K 2018-02-09.31356 1.000E-05 09:35:37.970 1.500E-01 0.500 F 0.040 -0.173 +14° 01' 13.60" 1.000E-01 0.500 F 0.260 -0.923 o 691 2.13 Yes No
2018CJ O C H 2018-02-09.31905 1.000E-05 09:51:26.880 1.500E-01 0.500 F 0.135 0.203 +06° 11' 08.90" 1.000E-01 0.500 F 0.221 -0.006 o 691 0.41 Yes No
2018CK O C K 2018-02-09.32107 1.000E-05 09:19:08.590 1.500E-01 0.500 F 0.198 0.204 +08° 52' 21.30" 1.000E-01 0.500 F 0.189 -0.440 o 691 0.98 Yes No
2018BD5 O C K 2018-02-09.32910 1.000E-05 09:35:38.320 1.500E-01 0.500 F 0.040 -0.229 +14° 00' 53.10" 1.000E-01 0.500 F 0.260 -0.027 o 691 0.51 Yes No
2018CJ O C H 2018-02-09.33461 1.000E-05 09:51:27.510 1.500E-01 0.500 F 0.135 0.116 +06° 10' 02.40" 1.000E-01 0.500 F 0.221 -0.050 o 691 0.26 Yes No
2018CY1 O C K 2018-02-09.33934 1.000E-05 10:05:07.100 1.500E-01 0.500 F 0.194 0.372 +18° 26' 02.50" 1.000E-01 0.500 F 0.228 0.502 o 691 1.26 Yes No
2018CY1 O C K 2018-02-09.34590 1.000E-05 10:05:10.770 1.500E-01 0.500 F 0.194 0.716 +18° 24' 49.30" 1.000E-01 0.500 F 0.228 0.179 o 691 1.49 Yes No
2018CY1 O C K 2018-02-09.35247 1.000E-05 10:05:14.410 1.500E-01 0.500 F 0.194 0.586 +18° 23' 36.80" 1.000E-01 0.500 F 0.228 0.711 o 691 1.86 Yes No
2018BJ7 O C 2018-02-09.36427 1.000E-05 10:23:54.640 1.500E-01 0.500 F 0.052 -0.323 +20° 26' 16.80" 1.000E-01 0.500 F 0.259 -0.207 20.1 V 0.70 0.32 o 691 0.78 Yes Yes
2018BJ7 O C 2018-02-09.36754 1.000E-05 10:23:56.500 1.500E-01 0.500 F 0.052 -0.353 +20° 26' 18.60" 1.000E-01 0.500 F 0.259 -1.051 19.8 V 0.70 0.02 o 691 2.24 Yes Yes
2018BJ7 O C 2018-02-09.37190 1.000E-05 10:23:58.990 1.500E-01 0.500 F 0.052 -0.270 +20° 26' 23.20" 1.000E-01 0.500 F 0.259 0.042 20.0 V 0.70 0.22 o 691 0.56 Yes Yes
2018AJ12 O C K 2018-02-09.38595 1.000E-05 11:07:02.670 1.500E-01 0.500 F 0.072 -0.508 +25° 12' 35.00" 1.000E-01 0.500 F 0.098 -0.089 o 691 1.04 Yes No
2018AJ12 O C K 2018-02-09.39590 1.000E-05 11:07:01.430 1.500E-01 0.500 F 0.072 -0.841 +25° 12' 44.50" 1.000E-01 0.500 F 0.098 0.304 o 691 1.80 Yes No
2018AJ12 O C K 2018-02-09.40588 1.000E-05 11:07:00.220 1.500E-01 0.500 F 0.072 -0.718 +25° 12' 53.30" 1.000E-01 0.500 F 0.098 -0.015 o 691 1.44 Yes No
2016CO246 O C K 2018-02-09.41868 1.000E-05 11:31:13.390 1.500E-01 0.500 F 0.124 -0.251 +13° 51' 27.00" 1.000E-01 0.500 F 0.196 -0.612 o 691 1.33 Yes No
2016CO246 O C K 2018-02-09.42851 1.000E-05 11:31:15.550 1.500E-01 0.500 F 0.124 0.657 +13° 52' 38.50" 1.000E-01 0.500 F 0.196 0.019 o 691 1.32 Yes No
2016CO246 O C K 2018-02-09.43835 1.000E-05 11:31:17.680 1.500E-01 0.500 F 0.124 0.995 +13° 53' 49.00" 1.000E-01 0.500 F 0.196 -0.363 o 691 2.13 Yes No
1999FP19 O C K 2018-02-09.45434 1.000E-05 13:19:01.180 1.500E-01 0.500 F 0.340 -0.238 -07° 39' 32.80" 1.000E-01 0.500 F 0.060 0.128 o 691 0.58 Yes No
1999FP19 O C K 2018-02-09.46085 1.000E-05 13:19:01.780 1.500E-01 0.500 F 0.340 -0.072 -07° 39' 43.50" 1.000E-01 0.500 F 0.060 0.010 o 691 0.15 Yes No
1999FP19 O C K 2018-02-09.46734 1.000E-05 13:19:02.370 1.500E-01 0.500 F 0.340 -0.026 -07° 39' 54.10" 1.000E-01 0.500 F 0.060 -0.041 o 691 0.10 Yes No
2017SV20 O C K 2018-02-10.09944 1.000E-05 03:07:36.840 1.500E-01 0.500 F -0.213 -0.054 +04° 34' 36.20" 1.000E-01 0.500 F 0.272 0.056 o 691 0.15 Yes No
2017SV20 O C K 2018-02-10.10876 1.000E-05 03:07:37.470 1.500E-01 0.500 F -0.213 -0.006 +04° 34' 48.20" 1.000E-01 0.500 F 0.272 -0.166 o 691 0.33 Yes No
2017SV20 O C K 2018-02-10.11808 1.000E-05 03:07:38.100 1.500E-01 0.500 F -0.213 0.034 +04° 35' 00.60" 1.000E-01 0.500 F 0.272 0.013 o 691 0.08 Yes No
2017WE2 O C 2018-02-10.12850 1.000E-05 03:29:23.040 1.500E-01 0.500 F -0.179 -0.249 +29° 05' 08.60" 1.000E-01 0.500 F 0.314 -0.244 20.3 V 0.70 -0.24 o 691 0.71 Yes Yes
2017WE2 O C 2018-02-10.14402 1.000E-05 03:29:23.870 1.500E-01 0.500 F -0.179 -0.156 +29° 04' 33.60" 1.000E-01 0.500 F 0.314 -0.172 20.1 V 0.70 -0.44 o 691 0.47 Yes Yes
2017WE2 O C 2018-02-10.15934 1.000E-05 03:29:24.700 1.500E-01 0.500 F -0.179 0.037 +29° 03' 59.00" 1.000E-01 0.500 F 0.314 -0.127 20.1 V 0.70 -0.44 o 691 0.27 Yes Yes
2017SL14 O C K 2018-02-10.17637 1.000E-05 04:22:56.540 1.500E-01 0.500 F -0.140 0.767 +14° 43' 40.80" 1.000E-01 0.500 F 0.220 -0.740 o 691 2.21 Yes No
2017SL14 O C K 2018-02-10.18620 1.000E-05 04:22:59.710 1.500E-01 0.500 F -0.140 0.328 +14° 43' 59.50" 1.000E-01 0.500 F 0.220 -0.007 o 691 0.70 Yes No
2018AF3 O C K 2018-02-10.23151 1.000E-05 08:01:28.310 1.500E-01 0.500 F 0.049 0.064 +21° 39' 26.60" 1.000E-01 0.500 F 0.259 -0.064 o 691 0.20 Yes No
2018BG5 O C K 2018-02-10.23683 1.000E-05 08:10:06.290 1.500E-01 0.500 F -0.068 -0.257 +29° 59' 29.70" 1.000E-01 0.500 F 0.253 -0.277 o 691 0.78 Yes No
2017XV2 O C 2018-02-10.24059 1.000E-05 08:37:00.170 1.500E-01 0.500 F 0.043 -0.192 +29° 33' 37.50" 1.000E-01 0.500 F 0.242 0.213 20.3 V 0.70 0.02 o 691 0.58 Yes Yes
2018AF3 O C K 2018-02-10.24402 1.000E-05 08:01:27.100 1.500E-01 0.500 F 0.049 0.302 +21° 39' 45.70" 1.000E-01 0.500 F 0.259 -0.108 o 691 0.72 Yes No
2018BG5 O C K 2018-02-10.24943 1.000E-05 08:10:05.820 1.500E-01 0.500 F -0.068 0.177 +29° 59' 06.50" 1.000E-01 0.500 F 0.253 -0.334 o 691 0.79 Yes No

[1-200] [201-400] [401-600] [601-800] [801-1000] [1001-1200] [1201-1400] [1401-1600] [1601-1800] [1801-2000] [2001-2200] [2201-2400] [2401-2600] [2601-2800] [2801-3000] [3001-3200] [3201-3400] [3401-3600] [3601-3800] [3801-4000] [4001-4200] [4201-4400] [4401-4600] [4601-4800] [4801-5000] [5001-5200] [5201-5400] [5401-5600] [5601-5800] [5801-6000] [6001-6200] [6201-6400] [6401-6600] [6601-6800] [6801-7000] [7001-7200] [7201-7400] [7401-7600] [7601-7800] [7801-8000] [8001-8200] [8201-8400] [8401-8600] [8601-8800] [8801-9000] [9001-9200] [9201-9400] [9401-9600] [9601-9800] [9801-10000] [10001-10200] [10201-10400] [10401-10600] [10601-10800] [10801-11000] [11001-11200] [11201-11400] [11401-11600] [11601-11800] [11801-12000] [12001-12200] [12201-12400] [12401-12600] [12601-12800] [12801-13000] [13001-13200] [13201-13400] [13401-13600] [13601-13800] [13801-14000] [14001-14200] [14201-14400] [14401-14600] [14601-14800] [14801-15000] [15001-15200] [15201-15400] [15401-15600] [15601-15800] [15801-16000] [16001-16200] [16201-16400] [16401-16600] [16601-16800] [16801-17000] [17001-17200] [17201-17400] [17401-17600] [17601-17800] [17801-18000] [18001-18200] [18201-18400] [18401-18600] [18601-18800] [18801-19000] [19001-19200] [19201-19400] [19401-19600] [19601-19800] [19801-20000] [20001-20200] [20201-20400] [20401-20600] [20601-20800] [20801-21000] [21001-21200] [21201-21400] [21401-21600] [21601-21800] [21801-22000] [22001-22200] [22201-22400] [22401-22600] [22601-22800] [22801-23000] [23001-23200] [23201-23400] [23401-23600] [23601-23800] [23801-24000] [24001-24200] [24201-24400] [24401-24600] [24601-24800] [24801-25000] [25001-25200] [25201-25400] [25401-25600] [25601-25800] [25801-26000] [26001-26200] [26201-26400] [26401-26600] [26601-26800] [26801-27000] [27001-27200] [27201-27400] [27401-27600] [27601-27800] [27801-28000] [28001-28200] [28201-28400] [28401-28600] [28601-28800] [28801-29000] [29001-29200] [29201-29400] [29401-29600] [29601-29800] [29801-30000] [30001-30200] [30201-30400] [30401-30600] [30601-30800] [30801-31000] [31001-31200] [31201-31400] [31401-31600] [31601-31800] [31801-32000] [32001-32200] [32201-32400] [32401-32600] [32601-32800] [32801-33000] [33001-33200] [33201-33400] [33401-33600] [33601-33800] [33801-34000] [34001-34200] [34201-34400] [34401-34600] [34601-34800] [34801-35000] [35001-35200] [35201-35400] [35401-35600] [35601-35800] [35801-36000] [36001-36200] [36201-36400] [36401-36600] [36601-36800] [36801-37000] [37001-37200] [37201-37400] [37401-37600] [37601-37800] [37801-38000] [38001-38200] [38201-38400] [38401-38600] [38601-38800] [38801-39000] [39001-39200] [39201-39400] [39401-39600] [39601-39800] [39801-40000] [40001-40200] [40201-40400] [40401-40600] [40601-40800] [40801-41000] [41001-41200] [41201-41400] [41401-41600] [41601-41800] [41801-42000] [42001-42200] [42201-42400] [42401-42600] [42601-42800] [42801-43000] [43001-43200] [43201-43400] [43401-43600] [43601-43800] [43801-44000] [44001-44200] [44201-44400] [44401-44600] [44601-44800] [44801-45000] [45001-45200] [45201-45400] [45401-45600] [45601-45800] [45801-46000] [46001-46200] [46201-46400] [46401-46600] [46601-46800] [46801-47000] [47001-47200] [47201-47400] [47401-47600] [47601-47800] [47801-48000] [48001-48200] [48201-48400] [48401-48600] [48601-48800] [48801-49000] [49001-49200] [49201-49400] [49401-49600] [49601-49800] [49801-50000] [50001-50200] [50201-50388]